createdAt,value
2018-11-28T00:00:28.836Z,52.60
2018-11-28T00:02:58.893Z,52.37
2018-11-28T00:05:27.213Z,51.37
2018-11-28T00:07:55.756Z,52.60
2018-11-28T00:10:24.085Z,45.30
2018-11-28T00:12:53.753Z,44.43
2018-11-28T00:15:22.213Z,51.33
2018-11-28T00:17:50.640Z,48.93
2018-11-28T00:20:20.741Z,49.77
2018-11-28T00:22:49.010Z,44.20
2018-11-28T00:25:18.608Z,54.67
2018-11-28T00:27:46.913Z,49.87
2018-11-28T00:30:21.898Z,52.20
2018-11-28T00:32:50.436Z,52.50
2018-11-28T00:35:23.591Z,52.10
2018-11-28T00:37:52.091Z,58.17
2018-11-28T00:40:21.694Z,53.20
2018-11-28T00:42:50.471Z,52.00
2018-11-28T00:45:21.567Z,58.10
2018-11-28T00:47:50.668Z,54.50
2018-11-28T00:50:22.436Z,58.43
2018-11-28T00:52:50.625Z,49.27
2018-11-28T00:55:19.212Z,60.97
2018-11-28T00:57:47.516Z,64.40
2018-11-28T01:00:17.423Z,57.73
2018-11-28T01:02:46.821Z,51.90
2018-11-28T01:05:15.439Z,50.23
2018-11-28T01:07:45.549Z,52.90
2018-11-28T01:10:16.420Z,47.03
2018-11-28T01:12:45.145Z,52.43
2018-11-28T01:15:14.795Z,50.90
2018-11-28T01:17:44.407Z,50.30
2018-11-28T01:20:15.226Z,52.83
2018-11-28T01:22:43.786Z,54.70
2018-11-28T01:25:17.708Z,49.10
2018-11-28T01:27:46.151Z,50.83
2018-11-28T01:30:17.660Z,53.83
2018-11-28T01:32:46.181Z,52.10
2018-11-28T01:35:16.146Z,53.33
2018-11-28T01:37:44.657Z,50.67
2018-11-28T01:40:17.900Z,54.60
2018-11-28T01:42:46.255Z,55.17
2018-11-28T01:45:17.399Z,50.33
2018-11-28T01:47:46.279Z,50.97
2018-11-28T01:50:16.420Z,49.83
2018-11-28T01:52:44.756Z,54.73
2018-11-28T01:55:14.896Z,60.43
2018-11-28T01:57:43.176Z,60.13
2018-11-28T02:00:17.659Z,63.07
2018-11-28T02:02:46.975Z,53.80
2018-11-28T02:05:15.180Z,51.73
2018-11-28T02:07:43.494Z,47.67
2018-11-28T02:10:16.120Z,56.70
2018-11-28T02:12:44.668Z,55.27
2018-11-28T02:15:19.206Z,68.07
2018-11-28T02:17:47.721Z,55.73
2018-11-28T02:20:16.927Z,59.97
2018-11-28T02:22:46.235Z,62.93
2018-11-28T02:25:17.386Z,55.00
2018-11-28T02:27:46.723Z,60.77
2018-11-28T02:30:17.489Z,57.63
2018-11-28T02:32:46.653Z,54.40
2018-11-28T02:35:15.769Z,57.67
2018-11-28T02:37:44.016Z,55.40
2018-11-28T02:40:14.746Z,58.63
2018-11-28T02:42:43.243Z,64.77
2018-11-28T02:45:14.403Z,71.57
2018-11-28T02:47:43.848Z,66.43
2018-11-28T02:50:12.195Z,64.97
2018-11-28T02:52:40.391Z,59.60
2018-11-28T02:55:16.862Z,63.50
2018-11-28T02:57:47.742Z,63.23
2018-11-28T03:00:24.118Z,50.87
2018-11-28T03:02:52.773Z,54.53
2018-11-28T03:05:21.413Z,56.43
2018-11-28T03:07:49.898Z,50.83
2018-11-28T03:10:28.153Z,48.77
2018-11-28T03:12:56.349Z,47.20
2018-11-28T03:15:29.576Z,48.07
2018-11-28T03:17:57.807Z,48.93
2018-11-28T03:20:26.037Z,42.30
2018-11-28T03:22:54.522Z,43.33
2018-11-28T03:25:22.766Z,42.30
2018-11-28T03:27:51.702Z,43.83
2018-11-28T03:30:20.517Z,39.47
2018-11-28T03:32:48.765Z,42.13
2018-11-28T03:35:17.091Z,40.37
2018-11-28T03:37:45.702Z,42.10
2018-11-28T03:40:14.048Z,38.13
2018-11-28T03:42:42.485Z,40.07
2018-11-28T03:45:13.515Z,36.83
2018-11-28T03:47:42.802Z,44.47
2018-11-28T03:50:13.580Z,38.10
2018-11-28T03:52:42.138Z,39.03
2018-11-28T03:55:12.965Z,36.57
2018-11-28T03:57:41.663Z,37.77
2018-11-28T04:00:13.107Z,45.07
2018-11-28T04:02:41.468Z,38.87
2018-11-28T04:05:11.232Z,39.30
2018-11-28T04:07:40.013Z,40.17
2018-11-28T04:10:13.544Z,41.53
2018-11-28T04:12:43.398Z,35.17
2018-11-28T04:15:21.046Z,41.27
2018-11-28T04:17:49.344Z,41.77
2018-11-28T04:20:21.126Z,46.17
2018-11-28T04:22:49.482Z,43.30
2018-11-28T04:25:20.273Z,44.37
2018-11-28T04:27:49.090Z,48.03
2018-11-28T04:30:22.786Z,40.13
2018-11-28T04:32:52.995Z,43.10
2018-11-28T04:35:21.232Z,49.27
2018-11-28T04:37:49.814Z,42.17
2018-11-28T04:40:20.124Z,39.07
2018-11-28T04:42:49.224Z,42.67
2018-11-28T04:45:22.233Z,39.67
2018-11-28T04:47:51.636Z,45.97
2018-11-28T04:50:19.976Z,33.17
2018-11-28T04:52:48.304Z,45.33
2018-11-28T04:55:18.156Z,50.67
2018-11-28T04:57:46.707Z,59.43
2018-11-28T05:00:24.697Z,63.13
2018-11-28T05:02:55.674Z,62.10
2018-11-28T05:05:23.937Z,49.60
2018-11-28T05:07:52.652Z,48.07
2018-11-28T05:10:29.737Z,50.73
2018-11-28T05:12:59.506Z,48.93
2018-11-28T05:15:29.874Z,48.37
2018-11-28T05:18:01.402Z,41.20
2018-11-28T05:20:35.419Z,47.50
2018-11-28T05:23:05.823Z,48.00
2018-11-28T05:25:34.948Z,42.43
2018-11-28T05:28:04.673Z,41.43
2018-11-28T05:30:35.693Z,55.03
2018-11-28T05:33:03.691Z,58.43
2018-11-28T05:35:39.924Z,60.03
2018-11-28T05:38:12.240Z,78.30
2018-11-28T05:40:41.719Z,71.50
2018-11-28T05:43:10.155Z,79.17
2018-11-28T05:45:38.858Z,64.57
2018-11-28T05:48:07.278Z,59.73
2018-11-28T05:50:35.460Z,58.93
2018-11-28T05:53:03.813Z,44.73
2018-11-28T05:55:32.427Z,43.60
2018-11-28T05:58:01.175Z,56.37
2018-11-28T06:00:36.344Z,47.97
2018-11-28T06:03:12.899Z,52.53
2018-11-28T06:05:42.333Z,64.03
2018-11-28T06:08:10.686Z,67.93
2018-11-28T06:10:39.221Z,71.37
2018-11-28T06:13:07.458Z,73.57
2018-11-28T06:15:35.685Z,71.23
2018-11-28T06:18:03.947Z,58.13
2018-11-28T06:20:32.127Z,58.60
2018-11-28T06:23:00.390Z,61.77
2018-11-28T06:25:28.670Z,56.33
2018-11-28T06:27:56.996Z,54.10
2018-11-28T06:30:25.187Z,69.07
2018-11-28T06:32:53.609Z,72.83
2018-11-28T06:35:21.898Z,66.53
2018-11-28T06:37:50.253Z,78.83
2018-11-28T06:40:23.629Z,80.27
2018-11-28T06:42:48.158Z,72.73
2018-11-28T06:45:19.347Z,75.40
2018-11-28T06:47:47.708Z,81.83
2018-11-28T06:50:17.761Z,82.23
2018-11-28T06:52:48.769Z,68.03
2018-11-28T06:55:18.790Z,68.20
2018-11-28T06:57:47.088Z,57.00
2018-11-28T07:00:21.048Z,61.60
2018-11-28T07:02:51.973Z,65.70
2018-11-28T07:05:22.129Z,78.80
2018-11-28T07:07:50.930Z,118.77
2018-11-28T07:10:23.689Z,73.67
2018-11-28T07:12:51.969Z,70.07
2018-11-28T07:15:24.396Z,68.53
2018-11-28T07:17:53.714Z,72.70
2018-11-28T07:20:24.171Z,58.00
2018-11-28T07:22:52.828Z,61.97
2018-11-28T07:25:21.805Z,58.50
2018-11-28T07:27:50.995Z,129.23
2018-11-28T07:30:22.421Z,153.60
2018-11-28T07:32:52.918Z,86.83
2018-11-28T07:35:21.308Z,71.13
2018-11-28T07:37:49.767Z,78.73
2018-11-28T07:40:20.994Z,56.13
2018-11-28T07:43:20.965Z,53.67
2018-11-28T07:45:51.227Z,62.43
2018-11-28T07:48:20.423Z,60.47
2018-11-28T07:50:48.591Z,70.97
2018-11-28T07:53:17.822Z,66.20
2018-11-28T07:55:46.072Z,77.90
2018-11-28T07:58:14.495Z,77.27
2018-11-28T08:00:42.792Z,68.93
2018-11-28T08:03:12.254Z,51.57
2018-11-28T08:05:40.765Z,49.07
2018-11-28T08:08:10.388Z,51.33
2018-11-28T08:10:39.002Z,51.63
2018-11-28T08:13:08.149Z,43.73
2018-11-28T08:15:37.101Z,42.33
2018-11-28T08:18:05.578Z,45.63
2018-11-28T08:20:34.570Z,47.43
2018-11-28T08:23:03.294Z,44.33
2018-11-28T08:25:31.641Z,47.40
2018-11-28T08:28:00.129Z,47.60
2018-11-28T08:30:28.619Z,41.47
2018-11-28T08:32:57.631Z,39.53
2018-11-28T08:35:26.319Z,35.17
2018-11-28T08:37:54.900Z,37.83
2018-11-28T08:40:26.123Z,36.50
2018-11-28T08:42:57.236Z,31.73
2018-11-28T08:45:25.625Z,28.17
2018-11-28T08:47:55.953Z,27.83
2018-11-28T08:50:27.190Z,25.43
2018-11-28T08:52:55.479Z,26.13
2018-11-28T08:55:23.742Z,23.27
2018-11-28T08:57:51.937Z,24.77
2018-11-28T09:00:22.713Z,24.33
2018-11-28T09:02:52.810Z,21.83
2018-11-28T09:05:21.171Z,24.63
2018-11-28T09:07:49.713Z,20.20
2018-11-28T09:10:19.618Z,21.77
2018-11-28T09:12:48.836Z,22.73
2018-11-28T09:15:23.715Z,22.80
2018-11-28T09:17:52.078Z,21.73
2018-11-28T09:20:20.368Z,18.30
2018-11-28T09:22:48.766Z,18.37
2018-11-28T09:25:18.219Z,19.70
2018-11-28T09:27:57.518Z,22.57
2018-11-28T09:30:26.280Z,18.07
2018-11-28T09:32:54.523Z,21.27
2018-11-28T09:35:22.812Z,24.07
2018-11-28T09:37:51.079Z,25.87
2018-11-28T09:40:25.144Z,22.53
2018-11-28T09:42:55.362Z,19.67
2018-11-28T09:45:23.837Z,19.73
2018-11-28T09:47:52.085Z,21.63
2018-11-28T09:50:22.968Z,19.00
2018-11-28T09:52:51.573Z,18.67
2018-11-28T09:55:23.105Z,23.70
2018-11-28T09:57:51.359Z,25.00
2018-11-28T10:00:25.209Z,25.40
2018-11-28T10:02:55.482Z,19.90
2018-11-28T10:05:27.642Z,21.07
2018-11-28T10:07:55.850Z,22.63
2018-11-28T10:10:24.082Z,18.97
2018-11-28T10:12:52.337Z,21.23
2018-11-28T10:15:22.363Z,23.03
2018-11-28T10:17:51.022Z,23.07
2018-11-28T10:20:20.075Z,24.43
2018-11-28T10:22:49.966Z,21.37
2018-11-28T10:25:21.496Z,19.77
2018-11-28T10:28:10.173Z,22.37
2018-11-28T10:30:39.045Z,21.50
2018-11-28T10:33:10.349Z,21.03
2018-11-28T10:35:40.006Z,26.07
2018-11-28T10:38:08.642Z,19.90
2018-11-28T10:40:37.627Z,20.33
2018-11-28T10:43:08.047Z,23.60
2018-11-28T10:45:37.142Z,20.70
2018-11-28T10:48:07.610Z,22.20
2018-11-28T10:50:36.365Z,22.93
2018-11-28T10:53:05.010Z,21.10
2018-11-28T10:55:33.311Z,19.63
2018-11-28T10:58:01.897Z,20.60
2018-11-28T11:00:36.558Z,17.50
2018-11-28T11:03:11.984Z,15.73
2018-11-28T11:05:46.035Z,19.80
2018-11-28T11:08:20.112Z,21.37
2018-11-28T11:10:54.196Z,20.67
2018-11-28T11:13:28.163Z,18.87
2018-11-28T11:15:57.731Z,17.33
2018-11-28T11:18:27.006Z,20.83
2018-11-28T11:20:55.455Z,17.90
2018-11-28T11:23:24.636Z,18.00
2018-11-28T11:25:53.627Z,18.17
2018-11-28T11:28:21.977Z,18.57
2018-11-28T11:30:50.304Z,16.73
2018-11-28T11:33:19.282Z,18.57
2018-11-28T11:35:47.498Z,17.40
2018-11-28T11:38:15.966Z,18.90
2018-11-28T11:40:44.455Z,17.77
2018-11-28T11:43:12.589Z,18.70
2018-11-28T11:45:40.897Z,16.77
2018-11-28T11:48:09.326Z,14.07
2018-11-28T11:50:37.500Z,16.60
2018-11-28T11:53:06.416Z,18.37
2018-11-28T11:55:36.171Z,14.83
2018-11-28T11:58:04.766Z,15.47
2018-11-28T12:00:33.197Z,14.83
2018-11-28T12:03:09.664Z,17.20
2018-11-28T12:05:39.931Z,17.17
2018-11-28T12:08:08.671Z,18.30
2018-11-28T12:10:36.911Z,17.47
2018-11-28T12:13:05.662Z,16.20
2018-11-28T12:15:35.638Z,17.07
2018-11-28T12:18:02.777Z,17.37
2018-11-28T12:20:38.681Z,18.40
2018-11-28T12:23:07.064Z,18.50
2018-11-28T12:25:35.598Z,17.60
2018-11-28T12:28:05.524Z,17.70
2018-11-28T12:30:40.128Z,18.80
2018-11-28T12:33:08.537Z,19.30
2018-11-28T12:35:36.801Z,16.77
2018-11-28T12:38:05.818Z,17.73
2018-11-28T12:40:35.161Z,20.23
2018-11-28T12:43:05.637Z,17.70
2018-11-28T12:45:34.322Z,18.63
2018-11-28T12:48:02.637Z,18.27
2018-11-28T12:50:31.562Z,15.93
2018-11-28T12:53:02.011Z,21.73
2018-11-28T12:55:33.158Z,19.87
2018-11-28T12:58:01.331Z,18.20
2018-11-28T13:00:32.857Z,19.30
2018-11-28T13:03:01.125Z,17.67
2018-11-28T13:05:29.470Z,17.47
2018-11-28T13:07:57.644Z,17.83
2018-11-28T13:10:32.687Z,15.57
2018-11-28T13:13:01.368Z,17.67
2018-11-28T13:15:29.611Z,17.33
2018-11-28T13:17:57.850Z,17.67
2018-11-28T13:20:26.253Z,19.30
2018-11-28T13:22:55.370Z,17.80
2018-11-28T13:25:26.031Z,15.33
2018-11-28T13:27:54.815Z,14.30
2018-11-28T13:30:24.729Z,16.27
2018-11-28T13:32:54.645Z,15.53
2018-11-28T13:35:26.660Z,15.37
2018-11-28T13:38:12.033Z,16.67
2018-11-28T13:40:41.307Z,16.43
2018-11-28T13:43:09.693Z,14.73
2018-11-28T13:45:41.341Z,12.13
2018-11-28T13:48:09.734Z,18.03
2018-11-28T13:50:38.333Z,17.10
2018-11-28T13:53:13.089Z,15.50
2018-11-28T13:58:28.149Z,12.87
2018-11-28T14:00:56.497Z,10.70
2018-11-28T14:03:24.854Z,14.30
2018-11-28T14:05:53.283Z,12.07
2018-11-28T14:08:21.667Z,12.73
2018-11-28T14:10:50.076Z,16.47
2018-11-28T14:13:18.457Z,12.20
2018-11-28T14:15:46.742Z,12.27
2018-11-28T14:18:19.560Z,13.53
2018-11-28T14:20:47.871Z,10.07
2018-11-28T14:23:16.241Z,10.83
2018-11-28T14:25:44.891Z,9.17
2018-11-28T14:28:13.819Z,12.63
2018-11-28T14:30:42.808Z,12.23
2018-11-28T14:33:11.435Z,12.17
2018-11-28T14:35:39.639Z,11.77
2018-11-28T14:38:08.147Z,14.13
2018-11-28T14:40:36.364Z,11.27
2018-11-28T14:43:05.046Z,11.83
2018-11-28T14:45:34.219Z,11.70
2018-11-28T14:48:02.792Z,12.20
2018-11-28T14:50:31.356Z,13.80
2018-11-28T14:53:02.133Z,11.67
2018-11-28T14:55:35.727Z,12.77
2018-11-28T14:58:04.337Z,12.83
2018-11-28T15:00:32.944Z,11.10
2018-11-28T15:03:04.296Z,12.30
2018-11-28T15:06:10.593Z,14.30
2018-11-28T15:08:39.452Z,12.83
2018-11-28T15:11:11.539Z,11.60
2018-11-28T15:13:42.030Z,14.17
2018-11-28T15:16:10.494Z,12.03
2018-11-28T15:18:39.129Z,12.13
2018-11-28T15:21:09.555Z,10.60
2018-11-28T15:23:38.673Z,11.87
2018-11-28T15:26:07.486Z,12.60
2018-11-28T15:28:35.692Z,12.53
2018-11-28T15:31:04.214Z,12.77
2018-11-28T15:33:32.579Z,15.13
2018-11-28T15:36:00.963Z,13.10
2018-11-28T15:38:29.426Z,15.67
2018-11-28T15:40:57.682Z,12.87
2018-11-28T15:43:26.143Z,13.67
2018-11-28T15:45:54.750Z,13.87
2018-11-28T15:48:23.679Z,13.00
2018-11-28T15:50:52.135Z,13.23
2018-11-28T15:53:20.652Z,13.90
2018-11-28T15:55:49.102Z,13.43
2018-11-28T15:58:17.423Z,12.57
2018-11-28T16:00:46.008Z,13.53
2018-11-28T16:03:14.406Z,10.87
2018-11-28T16:05:42.978Z,12.40
2018-11-28T16:08:11.508Z,14.20
2018-11-28T16:10:41.439Z,14.13
2018-11-28T16:13:11.337Z,15.00
2018-11-28T16:15:57.934Z,12.87
2018-11-28T16:18:26.298Z,13.10
2018-11-28T16:20:54.953Z,14.43
2018-11-28T16:23:23.273Z,14.23
2018-11-28T16:25:51.595Z,13.17
2018-11-28T16:28:19.796Z,14.20
2018-11-28T16:30:48.262Z,13.17
2018-11-28T16:33:16.500Z,13.70
2018-11-28T16:35:45.303Z,14.20
2018-11-28T16:38:13.520Z,16.57
2018-11-28T16:40:42.287Z,14.07
2018-11-28T16:43:11.143Z,13.90
2018-11-28T16:45:39.671Z,14.90
2018-11-28T16:48:08.232Z,14.83
2018-11-28T16:50:36.791Z,16.37
2018-11-28T16:53:05.761Z,15.93
2018-11-28T16:55:34.313Z,15.80
2018-11-28T16:58:02.715Z,14.70
2018-11-28T17:00:32.153Z,14.23
2018-11-28T17:03:00.592Z,15.87
2018-11-28T17:05:29.261Z,15.53
2018-11-28T17:07:57.701Z,16.13
2018-11-28T17:10:27.923Z,15.93
2018-11-28T17:12:57.245Z,13.00
2018-11-28T17:15:25.673Z,15.73
2018-11-28T17:17:53.957Z,16.03
2018-11-28T17:20:27.117Z,15.17
2018-11-28T17:24:22.524Z,16.97
2018-11-28T17:26:51.062Z,13.90
2018-11-28T17:29:19.308Z,16.20
2018-11-28T17:31:47.853Z,15.10
2018-11-28T17:34:16.066Z,14.17
2018-11-28T17:36:44.578Z,17.17
2018-11-28T17:39:15.082Z,14.67
2018-11-28T17:41:43.707Z,16.90
2018-11-28T17:44:12.076Z,14.77
2018-11-28T17:46:40.531Z,20.30
2018-11-28T17:49:08.931Z,15.93
2018-11-28T17:51:37.486Z,14.57
2018-11-28T17:54:06.893Z,16.33
2018-11-28T17:56:35.396Z,19.27
2018-11-28T17:59:05.461Z,17.87
2018-11-28T18:01:33.667Z,18.00
2018-11-28T18:04:04.155Z,17.77
2018-11-28T18:06:32.462Z,17.73
2018-11-28T18:09:00.804Z,18.63
2018-11-28T18:11:29.015Z,16.93
2018-11-28T18:13:57.268Z,18.03
2018-11-28T18:16:29.474Z,18.20
2018-11-28T18:18:54.069Z,18.03
2018-11-28T18:21:22.564Z,16.00
2018-11-28T18:23:51.305Z,16.30
2018-11-28T18:26:20.505Z,17.30
2018-11-28T18:28:48.921Z,18.13
2018-11-28T18:31:17.174Z,16.70
2018-11-28T18:33:45.493Z,17.90
2018-11-28T18:36:14.256Z,16.47
2018-11-28T18:38:43.029Z,16.60
2018-11-28T18:41:11.294Z,15.73
2018-11-28T18:43:39.586Z,16.27
2018-11-28T18:46:08.085Z,16.43
2018-11-28T18:48:38.064Z,17.83
2018-11-28T18:51:06.826Z,19.17
2018-11-28T18:53:35.389Z,17.27
2018-11-28T18:56:03.948Z,16.87
2018-11-28T18:58:32.498Z,17.60
2018-11-28T19:01:01.553Z,20.30
2018-11-28T19:03:29.832Z,19.07
2018-11-28T19:05:58.055Z,20.47
2018-11-28T19:08:26.791Z,21.00
2018-11-28T19:10:55.626Z,20.17
2018-11-28T19:13:24.088Z,18.20
2018-11-28T19:15:52.356Z,18.53
2018-11-28T19:18:20.738Z,20.97
2018-11-28T19:20:48.960Z,17.33
2018-11-28T19:23:17.205Z,20.47
2018-11-28T19:25:49.955Z,18.53
2018-11-28T19:28:14.056Z,18.60
2018-11-28T19:30:42.573Z,18.53
2018-11-28T19:33:13.268Z,19.77
2018-11-28T19:35:41.818Z,20.13
2018-11-28T19:38:14.080Z,19.13
2018-11-28T19:40:58.797Z,20.17
2018-11-28T19:43:27.277Z,26.03
2018-11-28T19:45:55.777Z,20.47
2018-11-28T19:48:23.981Z,20.90
2018-11-28T19:50:52.564Z,22.10
2018-11-28T19:53:20.940Z,19.70
2018-11-28T19:55:49.253Z,21.23
2018-11-28T19:58:19.694Z,19.23
2018-11-28T20:00:48.166Z,19.17
2018-11-28T20:03:16.589Z,17.43
2018-11-28T20:05:45.319Z,19.47
2018-11-28T20:08:13.756Z,16.73
2018-11-28T20:10:41.978Z,17.77
2018-11-28T20:13:10.955Z,18.77
2018-11-28T20:15:42.903Z,18.80
2018-11-28T20:18:11.876Z,18.13
2018-11-28T20:20:40.682Z,17.23
2018-11-28T20:23:10.415Z,17.03
2018-11-28T20:25:39.042Z,17.03
2018-11-28T20:28:09.755Z,16.50
2018-11-28T20:30:43.449Z,18.27
2018-11-28T20:33:14.534Z,16.90
2018-11-28T20:35:46.134Z,16.00
2018-11-28T20:38:25.325Z,17.00
2018-11-28T20:40:53.905Z,19.43
2018-11-28T20:43:23.631Z,15.23
2018-11-28T20:45:52.181Z,19.80
2018-11-28T20:48:21.037Z,18.30
2018-11-28T20:50:51.935Z,17.07
2018-11-28T20:53:21.478Z,17.70
2018-11-28T20:55:51.534Z,19.23
2018-11-28T20:58:19.844Z,17.87
2018-11-28T21:00:48.285Z,15.37
2018-11-28T21:03:16.749Z,14.53
2018-11-28T21:05:45.954Z,17.53
2018-11-28T21:08:14.887Z,14.40
2018-11-28T21:10:43.086Z,16.27
2018-11-28T21:13:13.958Z,16.00
2018-11-28T21:15:45.568Z,16.47
2018-11-28T21:18:14.769Z,19.60
2018-11-28T21:20:44.994Z,20.87
2018-11-28T21:23:15.661Z,17.40
2018-11-28T21:25:44.126Z,17.10
2018-11-28T21:28:12.946Z,17.37
2018-11-28T21:30:41.532Z,16.27
2018-11-28T21:33:12.109Z,15.03
2018-11-28T21:35:44.725Z,15.67
2018-11-28T21:38:12.984Z,18.10
2018-11-28T21:40:41.882Z,15.77
2018-11-28T21:43:10.416Z,16.23
2018-11-28T21:45:39.191Z,16.37
2018-11-28T21:48:07.892Z,17.60
2018-11-28T21:50:37.269Z,16.30
2018-11-28T21:53:07.894Z,18.53
2018-11-28T21:55:37.129Z,18.00
2018-11-28T21:58:06.250Z,15.30
2018-11-28T22:00:36.765Z,16.07
2018-11-28T22:03:07.310Z,16.17
2018-11-28T22:05:36.064Z,16.70
2018-11-28T22:08:05.022Z,17.60
2018-11-28T22:10:34.026Z,16.80
2018-11-28T22:13:02.462Z,16.20
2018-11-28T22:15:31.028Z,17.10
2018-11-28T22:17:59.408Z,18.37
2018-11-28T22:20:27.694Z,19.73
2018-11-28T22:22:56.156Z,18.50
2018-11-28T22:25:26.598Z,15.97
2018-11-28T22:27:56.126Z,18.47
2018-11-28T22:30:28.211Z,14.90
2018-11-28T22:32:57.460Z,16.17
2018-11-28T22:35:25.756Z,17.07
2018-11-28T22:37:54.323Z,17.17
2018-11-28T22:40:25.237Z,17.60
2018-11-28T22:42:53.692Z,14.23
2018-11-28T22:45:32.240Z,15.43
2018-11-28T22:48:00.558Z,15.30
2018-11-28T22:50:29.195Z,15.10
2018-11-28T22:52:57.831Z,16.27
2018-11-28T22:55:26.051Z,16.37
2018-11-28T22:57:54.268Z,17.73
2018-11-28T23:00:30.505Z,15.30
2018-11-28T23:03:07.917Z,16.00
2018-11-28T23:05:52.339Z,17.40
2018-11-28T23:08:21.439Z,16.90
2018-11-28T23:10:50.764Z,15.53
2018-11-28T23:13:21.784Z,16.27
2018-11-28T23:15:50.219Z,18.77
2018-11-28T23:18:19.175Z,19.03
2018-11-28T23:20:47.471Z,19.43
2018-11-28T23:23:16.766Z,21.17
2018-11-28T23:25:44.996Z,17.47
2018-11-28T23:28:13.654Z,19.17
2018-11-28T23:30:42.079Z,21.83
2018-11-28T23:33:10.337Z,19.40
2018-11-28T23:35:39.055Z,17.67
2018-11-28T23:38:07.556Z,17.97
2018-11-28T23:40:35.774Z,16.97
2018-11-28T23:43:04.936Z,19.03
2018-11-28T23:45:33.159Z,18.77
2018-11-28T23:48:01.553Z,19.57
2018-11-28T23:50:30.031Z,19.60
2018-11-28T23:52:58.277Z,18.33
2018-11-28T23:55:29.881Z,18.87
2018-11-28T23:57:58.345Z,17.20
